默认 日期 大小 文件数 浏览量 最新下载 xml
brighter磁力链接相关资源由用户搜索指令自动获取,结果来源于网络,本站不存储任何资料,亦不承担任何责任,请于24小时内删除,搜索到417个磁力,用时0ms。
    {"Ronny Jordan - A Brighter Day (1999).cue": 1847, "Ronny Jordan - A Brighter Day (1999).log": 3686, "Ronny Jordan - A Brighter Day (1999).flac": 472549247}
创建时间: 2018-12-15 16:06:37 大小:450.66 MB 文件数量:3 热度:6 最近下载:2022-04-23 07:05:26
    {"308-37.mp3": 15650182, "folder.jpg": 521437, "202-why.mp3": 11670056, "302-voices.mp3": 14554558, "309-humans.mp3": 12092184, "105-getaway.mp3": 8582954, "203-oblivion.mp3": 7839237, "204-my cutter.mp3": 12197679, "104-bodygarden.mp3": 12738657, "301- ...
创建时间: 2018-12-16 12:06:05 大小:325.29 MB 文件数量:29 热度:8 最近下载:2024-03-08 13:26:01
    {"back.jpg": 134907, "front.jpg": 3981047, "02 Oh Baby.mp3": 6998877, "12 Touchdown.mp3": 8727144, "04 Love Jones.mp3": 10961136, "05 Im A Loser.mp3": 7953179, "10 Im The Guy.mp3": 6290412, "09 Summer Ride.mp3": 5875839, "03 I Owe You Love.mp3": ...
创建时间: 2018-12-17 06:50:05 大小:107.57 MB 文件数量:14 热度:6 最近下载:2025-10-14 11:53:01
    ... sigala-and-kodaline-all-love-brighter-days-2018.mp3": 5451269, " ... -and-craig-david-aint-giving-brighter-days-2018.mp3": 3871380, ... -and-nina-nesbitt-hrvy-somebody-brighter-days-2018.mp3": 5813021, " ... -janeway-st.-paul-broken-bones-brighter-da.mp3": 5780482, "03 ...
创建时间: 2018-12-17 09:43:33 大小:78.95 MB 文件数量:16 热度:10 最近下载:2024-12-05 00:36:02
    {"Subs": {"2_Eng.srt": 161804}, "RARBG.txt": 30, "A.Brighter.Summer.Day.1991.CHINESE.BRRip.XviD.MP3-VXT.avi": 3198771838}
创建时间: 2018-12-17 18:22:44 大小:2.98 GB 文件数量:3 热度:9 最近下载:2022-04-23 06:54:51
    ... , "audiochecker.log": 917, "00 - WhoMadeWho - Brighter.m3u": 407, "04 - WhoMadeWho - The ...
创建时间: 2018-12-18 23:08:03 大小:393.56 MB 文件数量:14 热度:5 最近下载:2022-04-23 06:40:57
    ... State.flac": 33167643, "Brighter Wounds.cue": 2519, "Brighter Wounds.log": 7867, "Folder ...
创建时间: 2018-12-19 00:21:12 大小:244.32 MB 文件数量:14 热度:6 最近下载:2022-04-23 07:02:34
    {"cover.jpg": 140649, "10. Otha Fish.mp3": 7725881, "01. The Battle.mp3": 5193049, "04. Lover Murs.mp3": 6499171, "12. Murs SuperStar.mp3": 7610952, "07. Wait…Back It Up.mp3": 7470936, "08. If This Should End.mp3": 8319399, "02. God Black_Black God.mp3": ...
创建时间: 2018-12-19 02:07:40 大小:92.58 MB 文件数量:13 热度:6 最近下载:2022-04-23 06:10:29
    ... .mp3": 6480036, "The Stars Seemed Brighter.jpg": 45372, "05 Jean, Bring ...
创建时间: 2018-12-20 03:25:10 大小:72.64 MB 文件数量:11 热度:7 最近下载:2025-06-24 04:05:01
    ... jpg": 161394, "Cajmere Featuring Dajae - Brighter Days (Remixes) - B.jpg": 160208 ... ": 170649}, "A2. Cajmere Featuring Dajae - Brighter Days (Master Beats) .flac": 19396268 ... 42154131, "C2. Cajmere Featuring Dajae - Brighter Days (Underground Goodie Mix) .flac ...
创建时间: 2018-12-20 05:03:49 大小:316.23 MB 文件数量:13 热度:6 最近下载:2025-10-08 09:27:02
    ... 003).mp3": 11892960, "dj k - brighter dayz (killa records 003).mp3 ...
创建时间: 2018-12-21 13:10:21 大小:23.32 MB 文件数量:9 热度:16 最近下载:2025-08-03 20:13:05
    ... }, "album_art.jpg": 47324, "KILLING JOKE - Brighter Than A Thousand Suns (1986 ... ).cue": 815, "KILLING JOKE - Brighter Than A Thousand Suns - side ... A.flac": 459674685, "KILLING JOKE - Brighter Than A Thousand Suns - side ...
创建时间: 2018-12-21 19:57:59 大小:923.14 MB 文件数量:10 热度:13 最近下载:2025-05-19 11:41:02
    {"VIDEO_TS": {"VIDEO_TS.BUP": 18432, "VIDEO_TS.IFO": 18432, "VIDEO_TS.VOB": 116736, "VTS_01_0.BUP": 40960, "VTS_01_0.IFO": 40960, "VTS_01_0.VOB": 64933888, "VTS_01_1.VOB": 1073565696, "VTS_01_2.VOB": 788518912, "VTS_02_0.BUP": 20480, "VTS_02_0.IFO": 20480, ...
创建时间: 2018-12-22 03:14:15 大小:3.85 GB 文件数量:33 热度:3 最近下载:2021-06-17 16:24:50
    {"folder.jpg": 351830, "01 - One Sided Soul.mp3": 9715373, "02 - Warcry (Reborn).mp3": 8247293, "03 - There Will Be Blood.mp3": 8140721, "04 - What's Gone Is Gone.mp3": 8652721}
创建时间: 2018-12-22 14:44:49 大小:33.48 MB 文件数量:5 热度:7 最近下载:2024-09-03 10:21:02
    {"folder.jpg": 46581, "10 - Banner.flac": 36237527, "09 - Wait Here.flac": 25662929, "06 - Hold It All.flac": 26550148, "11 - Bread & Wine.flac": 21832077, "05 - Full Of Faith.flac": 23794963, "08 - Through & Through.flac": 20518307, "01 - Resurrection ...
创建时间: 2018-12-22 14:57:54 大小:316.45 MB 文件数量:14 热度:4 最近下载:2022-04-23 06:06:59
    {"KEYORINA.ISO": 4691755008, "KEYORINA.MDS": 4321, "��ӭ���ʿվ�ѧ԰.url": 239}
创建时间: 2018-12-22 15:38:55 大小:4.37 GB 文件数量:3 热度:5 最近下载:2022-04-23 06:02:50
    {"2014 With Promises Of Death": {"04- The Cover-Up.mp3": 9926105, "03- Tempting Murder.mp3": 14569638, "06- To Die Lullabye.mp3": 14452609, "08- End Of The 80's.mp3": 13811042, "01- Promises Of Death.mp3": 15289576, "05- Incomprehensive Evil.mp3": 13747313 ...
创建时间: 2018-12-22 22:29:31 大小:102.01 MB 文件数量:8 热度:6 最近下载:2024-12-07 19:35:02
    {"cover.jpg": 346379, "metadata.opf": 2542, "Chasing a Brighter Blue - Gerri Hill.epub": 639751}
创建时间: 2018-12-23 18:23:35 大小:965.5 KB 文件数量:3 热度:6 最近下载:2025-08-01 17:19:10
    {"cover.jpg": 85692, "Colbie Caillat ++ Brighter Than The Sun.mp3": 9365793, "Colbie Caillat ++ Brighter Than The Sun [email protected]": 174444609}
创建时间: 2018-12-24 17:17:01 大小:175.38 MB 文件数量:3 热度:8 最近下载:2023-04-14 09:00:19
    {"51Mnck3FGoL._SL300_.jpg": 21775, "Brighter Than the Sun-Cover.jpg": 37357, "Brighter Than the Sun-Part01.mp3": 34599296, "Brighter Than the Sun-Part02.mp3": 36945510, "Brighter Than the Sun-Part03.mp3": 31479231}
创建时间: 2018-12-24 23:03:31 大小:98.31 MB 文件数量:5 热度:10 最近下载:2023-04-14 22:20:08